sensor_id;sensor_type;location;lat;lon;timestamp;P1;durP1;ratioP1;P2;durP2;ratioP2
79454;SDS011;68900;52.134;5.420;2023-09-12T00:00:37;31.73;;;17.90;;
79454;SDS011;68900;52.134;5.420;2023-09-12T00:03:03;31.23;;;17.52;;
79454;SDS011;68900;52.134;5.420;2023-09-12T00:05:30;29.58;;;17.38;;
79454;SDS011;68900;52.134;5.420;2023-09-12T00:07:59;33.70;;;17.45;;
79454;SDS011;68900;52.134;5.420;2023-09-12T00:10:26;30.55;;;17.92;;
79454;SDS011;68900;52.134;5.420;2023-09-12T00:12:53;31.42;;;17.20;;
79454;SDS011;68900;52.134;5.420;2023-09-12T00:15:20;32.03;;;17.00;;
79454;SDS011;68900;52.134;5.420;2023-09-12T00:17:46;29.38;;;17.70;;
79454;SDS011;68900;52.134;5.420;2023-09-12T00:20:15;34.63;;;18.77;;
79454;SDS011;68900;52.134;5.420;2023-09-12T00:22:41;31.08;;;16.40;;
79454;SDS011;68900;52.134;5.420;2023-09-12T00:25:07;29.80;;;16.38;;
79454;SDS011;68900;52.134;5.420;2023-09-12T00:27:34;27.67;;;16.65;;
79454;SDS011;68900;52.134;5.420;2023-09-12T00:30:01;29.67;;;16.65;;
79454;SDS011;68900;52.134;5.420;2023-09-12T00:32:28;28.38;;;15.82;;
79454;SDS011;68900;52.134;5.420;2023-09-12T00:34:54;28.90;;;16.17;;
79454;SDS011;68900;52.134;5.420;2023-09-12T00:37:20;29.45;;;16.88;;
79454;SDS011;68900;52.134;5.420;2023-09-12T00:39:47;28.38;;;16.98;;
79454;SDS011;68900;52.134;5.420;2023-09-12T00:42:13;25.52;;;15.98;;
79454;SDS011;68900;52.134;5.420;2023-09-12T00:44:40;26.17;;;14.88;;
79454;SDS011;68900;52.134;5.420;2023-09-12T00:47:06;27.33;;;15.10;;
79454;SDS011;68900;52.134;5.420;2023-09-12T00:49:34;30.50;;;16.30;;
79454;SDS011;68900;52.134;5.420;2023-09-12T00:52:01;28.50;;;15.65;;
79454;SDS011;68900;52.134;5.420;2023-09-12T00:54:29;26.60;;;15.13;;
79454;SDS011;68900;52.134;5.420;2023-09-12T00:56:58;27.77;;;15.23;;
79454;SDS011;68900;52.134;5.420;2023-09-12T00:59:25;29.58;;;16.15;;
79454;SDS011;68900;52.134;5.420;2023-09-12T01:01:51;28.27;;;15.30;;
79454;SDS011;68900;52.134;5.420;2023-09-12T01:04:18;30.27;;;16.42;;
79454;SDS011;68900;52.134;5.420;2023-09-12T01:07:00;26.50;;;15.80;;
79454;SDS011;68900;52.134;5.420;2023-09-12T01:09:28;26.88;;;15.50;;
79454;SDS011;68900;52.134;5.420;2023-09-12T01:11:55;27.58;;;15.27;;
79454;SDS011;68900;52.134;5.420;2023-09-12T01:14:22;27.70;;;15.73;;
79454;SDS011;68900;52.134;5.420;2023-09-12T01:16:49;28.70;;;15.23;;
79454;SDS011;68900;52.134;5.420;2023-09-12T01:19:15;26.83;;;15.20;;
79454;SDS011;68900;52.134;5.420;2023-09-12T01:27:59;24.25;;;14.48;;
79454;SDS011;68900;52.134;5.420;2023-09-12T01:30:31;24.05;;;14.15;;
79454;SDS011;68900;52.134;5.420;2023-09-12T01:33:01;23.92;;;14.25;;
79454;SDS011;68900;52.134;5.420;2023-09-12T01:35:28;26.17;;;14.00;;
79454;SDS011;68900;52.134;5.420;2023-09-12T01:37:55;20.75;;;13.57;;
79454;SDS011;68900;52.134;5.420;2023-09-12T01:40:31;23.38;;;13.93;;
79454;SDS011;68900;52.134;5.420;2023-09-12T01:43:04;24.05;;;14.45;;
79454;SDS011;68900;52.134;5.420;2023-09-12T01:45:33;23.15;;;14.18;;
79454;SDS011;68900;52.134;5.420;2023-09-12T01:48:02;24.45;;;14.98;;
79454;SDS011;68900;52.134;5.420;2023-09-12T01:50:30;23.65;;;14.52;;
79454;SDS011;68900;52.134;5.420;2023-09-12T01:52:59;23.95;;;13.82;;
79454;SDS011;68900;52.134;5.420;2023-09-12T01:55:26;22.88;;;13.52;;
79454;SDS011;68900;52.134;5.420;2023-09-12T01:57:53;22.42;;;14.20;;
79454;SDS011;68900;52.134;5.420;2023-09-12T02:00:20;22.75;;;13.88;;
79454;SDS011;68900;52.134;5.420;2023-09-12T02:02:47;21.83;;;13.98;;
79454;SDS011;68900;52.134;5.420;2023-09-12T02:05:15;22.30;;;13.32;;
79454;SDS011;68900;52.134;5.420;2023-09-12T02:07:45;22.55;;;14.00;;
79454;SDS011;68900;52.134;5.420;2023-09-12T02:10:13;23.45;;;14.13;;
79454;SDS011;68900;52.134;5.420;2023-09-12T02:12:40;27.17;;;14.00;;
79454;SDS011;68900;52.134;5.420;2023-09-12T02:15:07;23.45;;;14.13;;
79454;SDS011;68900;52.134;5.420;2023-09-12T02:17:34;24.67;;;14.15;;
79454;SDS011;68900;52.134;5.420;2023-09-12T02:20:00;23.42;;;13.20;;
79454;SDS011;68900;52.134;5.420;2023-09-12T02:22:27;19.35;;;12.38;;
79454;SDS011;68900;52.134;5.420;2023-09-12T02:24:53;17.67;;;11.43;;
79454;SDS011;68900;52.134;5.420;2023-09-12T02:27:20;18.75;;;11.77;;
79454;SDS011;68900;52.134;5.420;2023-09-12T02:29:46;20.17;;;12.25;;
79454;SDS011;68900;52.134;5.420;2023-09-12T02:32:13;18.85;;;12.43;;
79454;SDS011;68900;52.134;5.420;2023-09-12T02:34:40;17.40;;;11.32;;
79454;SDS011;68900;52.134;5.420;2023-09-12T02:37:06;19.88;;;12.45;;
79454;SDS011;68900;52.134;5.420;2023-09-12T02:39:32;18.83;;;12.60;;
79454;SDS011;68900;52.134;5.420;2023-09-12T02:41:59;16.23;;;11.73;;
79454;SDS011;68900;52.134;5.420;2023-09-12T02:44:26;18.15;;;11.65;;
79454;SDS011;68900;52.134;5.420;2023-09-12T02:46:52;23.35;;;11.07;;
79454;SDS011;68900;52.134;5.420;2023-09-12T02:49:19;16.38;;;12.18;;
79454;SDS011;68900;52.134;5.420;2023-09-12T02:51:46;30.52;;;12.27;;
79454;SDS011;68900;52.134;5.420;2023-09-12T02:54:12;21.42;;;13.00;;
79454;SDS011;68900;52.134;5.420;2023-09-12T02:56:39;17.88;;;11.98;;
79454;SDS011;68900;52.134;5.420;2023-09-12T02:59:05;19.63;;;12.05;;
79454;SDS011;68900;52.134;5.420;2023-09-12T03:01:31;18.25;;;12.02;;
79454;SDS011;68900;52.134;5.420;2023-09-12T03:03:58;18.08;;;12.27;;
79454;SDS011;68900;52.134;5.420;2023-09-12T03:06:25;19.65;;;12.57;;
79454;SDS011;68900;52.134;5.420;2023-09-12T03:08:51;17.50;;;12.23;;
79454;SDS011;68900;52.134;5.420;2023-09-12T03:11:18;19.63;;;12.38;;
79454;SDS011;68900;52.134;5.420;2023-09-12T03:13:44;20.75;;;12.20;;
79454;SDS011;68900;52.134;5.420;2023-09-12T03:16:11;17.65;;;12.00;;
79454;SDS011;68900;52.134;5.420;2023-09-12T03:18:38;19.70;;;12.73;;
79454;SDS011;68900;52.134;5.420;2023-09-12T03:21:05;19.35;;;12.70;;
79454;SDS011;68900;52.134;5.420;2023-09-12T03:23:32;19.17;;;11.90;;
79454;SDS011;68900;52.134;5.420;2023-09-12T03:26:02;18.55;;;11.98;;
79454;SDS011;68900;52.134;5.420;2023-09-12T03:28:30;17.20;;;11.55;;
79454;SDS011;68900;52.134;5.420;2023-09-12T03:31:03;18.67;;;11.70;;
79454;SDS011;68900;52.134;5.420;2023-09-12T03:33:34;20.52;;;12.55;;
79454;SDS011;68900;52.134;5.420;2023-09-12T03:36:01;15.10;;;10.50;;
79454;SDS011;68900;52.134;5.420;2023-09-12T03:38:27;20.65;;;12.85;;
79454;SDS011;68900;52.134;5.420;2023-09-12T03:40:54;19.95;;;12.68;;
79454;SDS011;68900;52.134;5.420;2023-09-12T03:43:20;20.08;;;12.38;;
79454;SDS011;68900;52.134;5.420;2023-09-12T03:45:47;22.08;;;12.15;;
79454;SDS011;68900;52.134;5.420;2023-09-12T03:48:15;20.08;;;12.55;;
79454;SDS011;68900;52.134;5.420;2023-09-12T03:50:42;20.92;;;12.05;;
79454;SDS011;68900;52.134;5.420;2023-09-12T03:53:08;18.42;;;11.40;;
79454;SDS011;68900;52.134;5.420;2023-09-12T03:55:35;18.70;;;11.68;;
79454;SDS011;68900;52.134;5.420;2023-09-12T03:58:01;20.55;;;11.98;;
79454;SDS011;68900;52.134;5.420;2023-09-12T04:00:28;18.52;;;11.07;;
79454;SDS011;68900;52.134;5.420;2023-09-12T04:02:55;19.63;;;11.38;;
79454;SDS011;68900;52.134;5.420;2023-09-12T04:05:22;19.63;;;12.07;;
79454;SDS011;68900;52.134;5.420;2023-09-12T04:07:49;17.52;;;11.35;;
79454;SDS011;68900;52.134;5.420;2023-09-12T04:10:15;19.95;;;11.57;;
79454;SDS011;68900;52.134;5.420;2023-09-12T04:12:42;23.05;;;12.35;;
79454;SDS011;68900;52.134;5.420;2023-09-12T04:15:08;19.30;;;12.65;;
79454;SDS011;68900;52.134;5.420;2023-09-12T04:17:35;19.45;;;11.70;;
79454;SDS011;68900;52.134;5.420;2023-09-12T04:20:02;21.83;;;12.27;;
79454;SDS011;68900;52.134;5.420;2023-09-12T04:22:30;19.48;;;12.45;;
79454;SDS011;68900;52.134;5.420;2023-09-12T04:24:57;21.25;;;11.75;;
79454;SDS011;68900;52.134;5.420;2023-09-12T04:27:23;19.67;;;12.73;;
79454;SDS011;68900;52.134;5.420;2023-09-12T04:29:50;20.02;;;11.43;;
79454;SDS011;68900;52.134;5.420;2023-09-12T04:32:16;16.48;;;10.15;;
79454;SDS011;68900;52.134;5.420;2023-09-12T04:34:49;18.17;;;11.52;;
79454;SDS011;68900;52.134;5.420;2023-09-12T04:37:16;18.27;;;11.40;;
79454;SDS011;68900;52.134;5.420;2023-09-12T04:39:43;20.15;;;11.35;;
79454;SDS011;68900;52.134;5.420;2023-09-12T04:42:11;16.65;;;10.30;;
79454;SDS011;68900;52.134;5.420;2023-09-12T04:44:40;18.15;;;10.77;;
79454;SDS011;68900;52.134;5.420;2023-09-12T04:47:08;16.48;;;11.00;;
79454;SDS011;68900;52.134;5.420;2023-09-12T04:49:35;16.05;;;10.57;;
79454;SDS011;68900;52.134;5.420;2023-09-12T04:52:02;19.15;;;11.27;;
79454;SDS011;68900;52.134;5.420;2023-09-12T04:54:28;16.75;;;10.55;;
79454;SDS011;68900;52.134;5.420;2023-09-12T04:56:55;18.65;;;11.32;;
79454;SDS011;68900;52.134;5.420;2023-09-12T04:59:21;17.63;;;10.43;;
79454;SDS011;68900;52.134;5.420;2023-09-12T05:01:48;17.60;;;11.07;;
79454;SDS011;68900;52.134;5.420;2023-09-12T05:04:15;24.25;;;12.90;;
79454;SDS011;68900;52.134;5.420;2023-09-12T05:06:42;20.80;;;11.88;;
79454;SDS011;68900;52.134;5.420;2023-09-12T05:09:08;23.10;;;12.70;;
79454;SDS011;68900;52.134;5.420;2023-09-12T05:11:37;21.63;;;12.35;;
79454;SDS011;68900;52.134;5.420;2023-09-12T05:14:03;22.73;;;12.15;;
79454;SDS011;68900;52.134;5.420;2023-09-12T05:16:30;23.23;;;12.93;;
79454;SDS011;68900;52.134;5.420;2023-09-12T05:18:56;23.17;;;12.55;;
79454;SDS011;68900;52.134;5.420;2023-09-12T05:21:23;20.77;;;11.52;;
79454;SDS011;68900;52.134;5.420;2023-09-12T05:23:50;23.73;;;13.43;;
79454;SDS011;68900;52.134;5.420;2023-09-12T05:26:16;20.83;;;12.00;;
79454;SDS011;68900;52.134;5.420;2023-09-12T05:28:43;23.73;;;12.63;;
79454;SDS011;68900;52.134;5.420;2023-09-12T05:31:09;21.50;;;12.45;;
79454;SDS011;68900;52.134;5.420;2023-09-12T05:33:36;22.63;;;12.48;;
79454;SDS011;68900;52.134;5.420;2023-09-12T05:36:03;22.35;;;12.60;;
79454;SDS011;68900;52.134;5.420;2023-09-12T05:38:31;17.20;;;8.98;;
79454;SDS011;68900;52.134;5.420;2023-09-12T05:40:57;21.17;;;12.15;;
79454;SDS011;68900;52.134;5.420;2023-09-12T05:43:24;21.95;;;12.40;;
79454;SDS011;68900;52.134;5.420;2023-09-12T05:45:50;21.23;;;13.00;;
79454;SDS011;68900;52.134;5.420;2023-09-12T05:48:17;23.95;;;14.15;;
79454;SDS011;68900;52.134;5.420;2023-09-12T05:50:43;25.17;;;14.70;;
79454;SDS011;68900;52.134;5.420;2023-09-12T05:53:10;30.25;;;18.05;;
79454;SDS011;68900;52.134;5.420;2023-09-12T05:55:40;24.50;;;14.25;;
79454;SDS011;68900;52.134;5.420;2023-09-12T05:58:06;28.92;;;15.30;;
79454;SDS011;68900;52.134;5.420;2023-09-12T06:00:33;27.02;;;15.23;;
79454;SDS011;68900;52.134;5.420;2023-09-12T06:02:59;29.10;;;14.55;;
79454;SDS011;68900;52.134;5.420;2023-09-12T06:05:26;23.00;;;12.27;;
79454;SDS011;68900;52.134;5.420;2023-09-12T06:07:53;26.42;;;14.95;;
79454;SDS011;68900;52.134;5.420;2023-09-12T06:10:20;28.00;;;14.90;;
79454;SDS011;68900;52.134;5.420;2023-09-12T06:12:47;30.45;;;15.55;;
79454;SDS011;68900;52.134;5.420;2023-09-12T06:15:13;24.85;;;13.45;;
79454;SDS011;68900;52.134;5.420;2023-09-12T06:17:40;29.45;;;15.45;;
79454;SDS011;68900;52.134;5.420;2023-09-12T06:20:07;33.85;;;16.42;;
79454;SDS011;68900;52.134;5.420;2023-09-12T06:22:34;32.35;;;16.73;;
79454;SDS011;68900;52.134;5.420;2023-09-12T06:25:01;35.17;;;17.55;;
79454;SDS011;68900;52.134;5.420;2023-09-12T06:27:29;35.30;;;17.92;;
79454;SDS011;68900;52.134;5.420;2023-09-12T06:29:57;36.63;;;18.02;;
79454;SDS011;68900;52.134;5.420;2023-09-12T06:32:24;35.88;;;18.25;;
79454;SDS011;68900;52.134;5.420;2023-09-12T06:34:51;35.88;;;19.17;;
79454;SDS011;68900;52.134;5.420;2023-09-12T06:37:17;37.70;;;18.88;;
79454;SDS011;68900;52.134;5.420;2023-09-12T06:39:44;34.38;;;18.40;;
79454;SDS011;68900;52.134;5.420;2023-09-12T06:42:11;39.42;;;20.13;;
79454;SDS011;68900;52.134;5.420;2023-09-12T06:44:40;40.13;;;19.15;;
79454;SDS011;68900;52.134;5.420;2023-09-12T06:47:07;39.88;;;20.00;;
79454;SDS011;68900;52.134;5.420;2023-09-12T06:49:35;39.75;;;19.50;;
79454;SDS011;68900;52.134;5.420;2023-09-12T06:52:03;39.92;;;18.65;;
79454;SDS011;68900;52.134;5.420;2023-09-12T06:54:32;40.28;;;19.42;;
79454;SDS011;68900;52.134;5.420;2023-09-12T06:56:59;35.42;;;18.95;;
79454;SDS011;68900;52.134;5.420;2023-09-12T06:59:25;40.38;;;19.38;;
79454;SDS011;68900;52.134;5.420;2023-09-12T07:01:51;41.97;;;20.70;;
79454;SDS011;68900;52.134;5.420;2023-09-12T07:04:18;39.30;;;19.55;;
79454;SDS011;68900;52.134;5.420;2023-09-12T07:06:45;32.90;;;15.65;;
79454;SDS011;68900;52.134;5.420;2023-09-12T07:09:11;42.70;;;19.60;;
79454;SDS011;68900;52.134;5.420;2023-09-12T07:11:41;41.60;;;21.40;;
79454;SDS011;68900;52.134;5.420;2023-09-12T07:14:08;43.22;;;20.92;;
79454;SDS011;68900;52.134;5.420;2023-09-12T07:16:36;41.20;;;20.40;;
79454;SDS011;68900;52.134;5.420;2023-09-12T07:19:03;41.10;;;20.50;;
79454;SDS011;68900;52.134;5.420;2023-09-12T07:21:30;42.55;;;21.75;;
79454;SDS011;68900;52.134;5.420;2023-09-12T07:23:58;41.78;;;20.42;;
79454;SDS011;68900;52.134;5.420;2023-09-12T07:26:24;39.10;;;20.17;;
79454;SDS011;68900;52.134;5.420;2023-09-12T07:28:53;38.45;;;19.83;;
79454;SDS011;68900;52.134;5.420;2023-09-12T07:31:20;43.05;;;20.33;;
79454;SDS011;68900;52.134;5.420;2023-09-12T07:33:46;44.17;;;20.70;;
79454;SDS011;68900;52.134;5.420;2023-09-12T07:36:13;37.95;;;19.95;;
79454;SDS011;68900;52.134;5.420;2023-09-12T07:38:39;42.75;;;21.65;;
79454;SDS011;68900;52.134;5.420;2023-09-12T07:41:07;42.60;;;21.27;;
79454;SDS011;68900;52.134;5.420;2023-09-12T07:43:36;42.70;;;21.30;;
79454;SDS011;68900;52.134;5.420;2023-09-12T07:46:03;42.95;;;20.23;;
79454;SDS011;68900;52.134;5.420;2023-09-12T07:48:30;37.63;;;18.75;;
79454;SDS011;68900;52.134;5.420;2023-09-12T07:50:56;45.03;;;21.40;;
79454;SDS011;68900;52.134;5.420;2023-09-12T07:53:23;40.35;;;20.13;;
79454;SDS011;68900;52.134;5.420;2023-09-12T07:55:49;41.75;;;20.65;;
79454;SDS011;68900;52.134;5.420;2023-09-12T07:58:17;38.92;;;19.45;;
79454;SDS011;68900;52.134;5.420;2023-09-12T08:00:45;31.70;;;15.90;;
79454;SDS011;68900;52.134;5.420;2023-09-12T08:03:12;34.97;;;18.17;;
79454;SDS011;68900;52.134;5.420;2023-09-12T08:05:39;33.47;;;16.55;;
79454;SDS011;68900;52.134;5.420;2023-09-12T08:08:06;32.53;;;16.40;;
79454;SDS011;68900;52.134;5.420;2023-09-12T08:10:32;35.10;;;16.77;;
79454;SDS011;68900;52.134;5.420;2023-09-12T08:12:59;32.00;;;14.85;;
79454;SDS011;68900;52.134;5.420;2023-09-12T08:15:25;31.25;;;15.93;;
79454;SDS011;68900;52.134;5.420;2023-09-12T08:17:53;32.72;;;15.88;;
79454;SDS011;68900;52.134;5.420;2023-09-12T08:20:20;33.90;;;16.58;;
79454;SDS011;68900;52.134;5.420;2023-09-12T08:22:47;33.75;;;15.32;;
79454;SDS011;68900;52.134;5.420;2023-09-12T08:25:15;37.60;;;16.65;;
79454;SDS011;68900;52.134;5.420;2023-09-12T08:27:42;34.47;;;16.38;;
79454;SDS011;68900;52.134;5.420;2023-09-12T08:30:10;35.70;;;15.65;;
79454;SDS011;68900;52.134;5.420;2023-09-12T08:32:39;29.15;;;14.82;;
79454;SDS011;68900;52.134;5.420;2023-09-12T08:35:11;38.45;;;16.83;;
79454;SDS011;68900;52.134;5.420;2023-09-12T08:37:41;33.13;;;14.52;;
79454;SDS011;68900;52.134;5.420;2023-09-12T08:40:08;31.98;;;14.80;;
79454;SDS011;68900;52.134;5.420;2023-09-12T08:45:11;33.80;;;15.50;;
79454;SDS011;68900;52.134;5.420;2023-09-12T08:48:00;28.13;;;15.02;;
79454;SDS011;68900;52.134;5.420;2023-09-12T08:50:27;32.60;;;15.82;;
79454;SDS011;68900;52.134;5.420;2023-09-12T08:52:57;27.75;;;14.02;;
79454;SDS011;68900;52.134;5.420;2023-09-12T08:55:33;33.28;;;15.98;;
79454;SDS011;68900;52.134;5.420;2023-09-12T08:58:02;31.58;;;14.23;;
79454;SDS011;68900;52.134;5.420;2023-09-12T09:00:29;34.30;;;16.20;;
79454;SDS011;68900;52.134;5.420;2023-09-12T09:02:57;30.38;;;14.40;;
79454;SDS011;68900;52.134;5.420;2023-09-12T09:05:24;31.77;;;15.93;;
79454;SDS011;68900;52.134;5.420;2023-09-12T09:07:53;31.77;;;14.70;;
79454;SDS011;68900;52.134;5.420;2023-09-12T09:10:22;33.40;;;15.23;;
79454;SDS011;68900;52.134;5.420;2023-09-12T09:13:09;29.77;;;14.45;;
79454;SDS011;68900;52.134;5.420;2023-09-12T09:15:36;27.35;;;14.88;;
79454;SDS011;68900;52.134;5.420;2023-09-12T09:18:08;29.60;;;15.35;;
79454;SDS011;68900;52.134;5.420;2023-09-12T09:20:37;30.35;;;14.85;;
79454;SDS011;68900;52.134;5.420;2023-09-12T09:23:06;31.45;;;15.15;;
79454;SDS011;68900;52.134;5.420;2023-09-12T09:25:35;30.45;;;16.20;;
79454;SDS011;68900;52.134;5.420;2023-09-12T09:28:05;32.67;;;16.13;;
79454;SDS011;68900;52.134;5.420;2023-09-12T09:30:52;30.40;;;15.95;;
79454;SDS011;68900;52.134;5.420;2023-09-12T09:33:21;36.60;;;18.52;;
79454;SDS011;68900;52.134;5.420;2023-09-12T09:35:48;31.83;;;17.45;;
79454;SDS011;68900;52.134;5.420;2023-09-12T09:38:15;37.25;;;18.95;;
79454;SDS011;68900;52.134;5.420;2023-09-12T09:40:45;33.80;;;18.27;;
79454;SDS011;68900;52.134;5.420;2023-09-12T09:43:12;36.58;;;18.33;;
79454;SDS011;68900;52.134;5.420;2023-09-12T09:45:43;41.83;;;20.75;;
79454;SDS011;68900;52.134;5.420;2023-09-12T09:48:18;37.90;;;19.40;;
79454;SDS011;68900;52.134;5.420;2023-09-12T09:50:45;33.55;;;17.50;;
79454;SDS011;68900;52.134;5.420;2023-09-12T09:53:13;31.77;;;17.60;;
79454;SDS011;68900;52.134;5.420;2023-09-12T09:55:39;33.28;;;17.20;;
79454;SDS011;68900;52.134;5.420;2023-09-12T09:58:06;37.60;;;19.25;;
79454;SDS011;68900;52.134;5.420;2023-09-12T10:00:37;34.17;;;18.52;;
79454;SDS011;68900;52.134;5.420;2023-09-12T10:03:04;40.28;;;19.05;;
79454;SDS011;68900;52.134;5.420;2023-09-12T10:05:34;36.47;;;19.75;;
79454;SDS011;68900;52.134;5.420;2023-09-12T10:08:03;36.25;;;17.85;;
79454;SDS011;68900;52.134;5.420;2023-09-12T10:10:32;39.33;;;18.95;;
79454;SDS011;68900;52.134;5.420;2023-09-12T10:13:06;34.38;;;18.27;;
79454;SDS011;68900;52.134;5.420;2023-09-12T10:15:34;38.58;;;18.88;;
79454;SDS011;68900;52.134;5.420;2023-09-12T10:18:05;37.10;;;17.85;;
79454;SDS011;68900;52.134;5.420;2023-09-12T10:20:42;35.92;;;17.67;;
79454;SDS011;68900;52.134;5.420;2023-09-12T10:23:17;38.33;;;18.40;;
79454;SDS011;68900;52.134;5.420;2023-09-12T10:25:48;31.90;;;17.05;;
79454;SDS011;68900;52.134;5.420;2023-09-12T10:28:15;34.65;;;17.20;;
79454;SDS011;68900;52.134;5.420;2023-09-12T10:30:43;30.77;;;16.25;;
79454;SDS011;68900;52.134;5.420;2023-09-12T10:33:11;35.53;;;17.02;;
79454;SDS011;68900;52.134;5.420;2023-09-12T10:35:38;33.33;;;16.63;;
79454;SDS011;68900;52.134;5.420;2023-09-12T10:38:05;34.55;;;17.35;;
79454;SDS011;68900;52.134;5.420;2023-09-12T10:40:36;32.28;;;15.75;;
79454;SDS011;68900;52.134;5.420;2023-09-12T10:43:09;27.38;;;14.02;;
79454;SDS011;68900;52.134;5.420;2023-09-12T10:45:38;28.60;;;15.50;;
79454;SDS011;68900;52.134;5.420;2023-09-12T10:48:06;30.33;;;15.60;;
79454;SDS011;68900;52.134;5.420;2023-09-12T10:50:35;30.90;;;16.15;;
79454;SDS011;68900;52.134;5.420;2023-09-12T10:53:09;28.30;;;14.73;;
79454;SDS011;68900;52.134;5.420;2023-09-12T10:55:37;25.33;;;13.15;;
79454;SDS011;68900;52.134;5.420;2023-09-12T10:58:04;25.63;;;13.15;;
79454;SDS011;68900;52.134;5.420;2023-09-12T11:00:32;26.48;;;13.50;;
79454;SDS011;68900;52.134;5.420;2023-09-12T11:03:45;28.48;;;13.95;;
79454;SDS011;68900;52.134;5.420;2023-09-12T11:05:58;32.97;;;16.90;;
79454;SDS011;68900;52.134;5.420;2023-09-12T11:08:24;30.02;;;15.85;;
79454;SDS011;68900;52.134;5.420;2023-09-12T11:13:44;29.10;;;14.73;;
79454;SDS011;68900;52.134;5.420;2023-09-12T11:16:15;29.25;;;14.95;;
79454;SDS011;68900;52.134;5.420;2023-09-12T11:21:43;28.42;;;14.40;;
79454;SDS011;68900;52.134;5.420;2023-09-12T11:24:11;24.25;;;13.35;;
79454;SDS011;68900;52.134;5.420;2023-09-12T11:29:21;26.27;;;13.77;;
79454;SDS011;68900;52.134;5.420;2023-09-12T11:31:53;26.63;;;13.50;;
79454;SDS011;68900;52.134;5.420;2023-09-12T11:34:26;27.52;;;13.10;;
79454;SDS011;68900;52.134;5.420;2023-09-12T11:36:54;25.83;;;12.30;;
79454;SDS011;68900;52.134;5.420;2023-09-12T11:39:23;25.02;;;12.60;;
79454;SDS011;68900;52.134;5.420;2023-09-12T11:44:24;20.88;;;11.07;;
79454;SDS011;68900;52.134;5.420;2023-09-12T11:46:53;26.08;;;13.20;;
79454;SDS011;68900;52.134;5.420;2023-09-12T11:49:21;25.38;;;13.75;;
79454;SDS011;68900;52.134;5.420;2023-09-12T11:51:51;27.75;;;14.27;;
79454;SDS011;68900;52.134;5.420;2023-09-12T11:54:19;26.40;;;14.10;;
79454;SDS011;68900;52.134;5.420;2023-09-12T11:56:52;23.88;;;12.43;;
79454;SDS011;68900;52.134;5.420;2023-09-12T11:59:26;23.88;;;12.10;;
79454;SDS011;68900;52.134;5.420;2023-09-12T12:01:53;22.50;;;12.55;;
79454;SDS011;68900;52.134;5.420;2023-09-12T12:04:24;22.60;;;12.40;;
79454;SDS011;68900;52.134;5.420;2023-09-12T12:06:52;22.55;;;12.07;;
79454;SDS011;68900;52.134;5.420;2023-09-12T12:09:19;20.25;;;11.55;;
79454;SDS011;68900;52.134;5.420;2023-09-12T12:11:46;20.55;;;11.82;;
79454;SDS011;68900;52.134;5.420;2023-09-12T12:14:13;21.52;;;11.88;;
79454;SDS011;68900;52.134;5.420;2023-09-12T12:16:41;18.30;;;11.18;;
79454;SDS011;68900;52.134;5.420;2023-09-12T12:19:11;19.13;;;11.15;;
79454;SDS011;68900;52.134;5.420;2023-09-12T12:21:39;15.82;;;9.32;;
79454;SDS011;68900;52.134;5.420;2023-09-12T12:24:10;16.08;;;8.57;;
79454;SDS011;68900;52.134;5.420;2023-09-12T12:26:42;18.55;;;10.15;;
79454;SDS011;68900;52.134;5.420;2023-09-12T12:29:10;16.63;;;9.27;;
79454;SDS011;68900;52.134;5.420;2023-09-12T12:31:37;16.27;;;9.10;;
79454;SDS011;68900;52.134;5.420;2023-09-12T12:34:05;14.18;;;7.72;;
79454;SDS011;68900;52.134;5.420;2023-09-12T12:36:53;17.20;;;9.40;;
79454;SDS011;68900;52.134;5.420;2023-09-12T12:39:24;18.25;;;8.80;;
79454;SDS011;68900;52.134;5.420;2023-09-12T12:41:52;16.00;;;8.45;;
79454;SDS011;68900;52.134;5.420;2023-09-12T12:44:19;18.00;;;8.90;;
79454;SDS011;68900;52.134;5.420;2023-09-12T12:49:16;15.20;;;7.72;;
79454;SDS011;68900;52.134;5.420;2023-09-12T12:51:42;14.00;;;7.30;;
79454;SDS011;68900;52.134;5.420;2023-09-12T12:54:11;13.13;;;6.80;;
79454;SDS011;68900;52.134;5.420;2023-09-12T12:56:38;14.05;;;7.00;;
79454;SDS011;68900;52.134;5.420;2023-09-12T12:59:06;10.43;;;5.45;;
79454;SDS011;68900;52.134;5.420;2023-09-12T13:01:35;12.10;;;5.55;;
79454;SDS011;68900;52.134;5.420;2023-09-12T13:04:06;10.32;;;5.90;;
79454;SDS011;68900;52.134;5.420;2023-09-12T13:06:34;9.75;;;5.07;;
79454;SDS011;68900;52.134;5.420;2023-09-12T13:09:05;8.23;;;5.20;;
79454;SDS011;68900;52.134;5.420;2023-09-12T13:14:01;8.65;;;4.57;;
79454;SDS011;68900;52.134;5.420;2023-09-12T13:16:28;9.05;;;4.72;;
79454;SDS011;68900;52.134;5.420;2023-09-12T13:18:55;8.45;;;4.97;;
79454;SDS011;68900;52.134;5.420;2023-09-12T13:21:21;9.70;;;4.57;;
79454;SDS011;68900;52.134;5.420;2023-09-12T13:23:48;11.35;;;5.63;;
79454;SDS011;68900;52.134;5.420;2023-09-12T13:26:16;7.95;;;4.70;;
79454;SDS011;68900;52.134;5.420;2023-09-12T13:28:42;9.85;;;5.07;;
79454;SDS011;68900;52.134;5.420;2023-09-12T13:31:09;11.38;;;4.88;;
79454;SDS011;68900;52.134;5.420;2023-09-12T13:33:36;9.30;;;5.60;;
79454;SDS011;68900;52.134;5.420;2023-09-12T13:36:02;8.48;;;4.68;;
79454;SDS011;68900;52.134;5.420;2023-09-12T13:38:30;10.48;;;5.65;;
79454;SDS011;68900;52.134;5.420;2023-09-12T13:40:56;11.52;;;5.68;;
79454;SDS011;68900;52.134;5.420;2023-09-12T13:43:23;12.07;;;4.47;;
79454;SDS011;68900;52.134;5.420;2023-09-12T13:45:49;7.63;;;3.35;;
79454;SDS011;68900;52.134;5.420;2023-09-12T13:48:16;6.38;;;3.40;;
79454;SDS011;68900;52.134;5.420;2023-09-12T13:50:42;7.50;;;3.05;;
79454;SDS011;68900;52.134;5.420;2023-09-12T13:53:09;9.10;;;2.92;;
79454;SDS011;68900;52.134;5.420;2023-09-12T13:55:36;6.63;;;2.83;;
79454;SDS011;68900;52.134;5.420;2023-09-12T13:58:04;7.93;;;3.08;;
79454;SDS011;68900;52.134;5.420;2023-09-12T14:00:32;6.75;;;2.90;;
79454;SDS011;68900;52.134;5.420;2023-09-12T14:03:03;9.30;;;4.32;;
79454;SDS011;68900;52.134;5.420;2023-09-12T14:05:30;9.68;;;4.90;;
79454;SDS011;68900;52.134;5.420;2023-09-12T14:07:58;9.27;;;5.15;;
79454;SDS011;68900;52.134;5.420;2023-09-12T14:10:25;9.82;;;4.65;;
79454;SDS011;68900;52.134;5.420;2023-09-12T14:13:03;13.27;;;5.65;;
79454;SDS011;68900;52.134;5.420;2023-09-12T14:15:47;15.88;;;6.22;;
79454;SDS011;68900;52.134;5.420;2023-09-12T14:18:16;11.48;;;5.97;;
79454;SDS011;68900;52.134;5.420;2023-09-12T14:23:13;9.63;;;5.38;;
79454;SDS011;68900;52.134;5.420;2023-09-12T14:25:40;10.68;;;5.63;;
79454;SDS011;68900;52.134;5.420;2023-09-12T14:30:36;11.70;;;6.40;;
79454;SDS011;68900;52.134;5.420;2023-09-12T14:33:04;11.50;;;6.10;;
79454;SDS011;68900;52.134;5.420;2023-09-12T14:35:31;11.88;;;6.22;;
79454;SDS011;68900;52.134;5.420;2023-09-12T14:37:57;15.45;;;6.72;;
79454;SDS011;68900;52.134;5.420;2023-09-12T14:40:25;15.15;;;7.13;;
79454;SDS011;68900;52.134;5.420;2023-09-12T14:45:20;13.52;;;7.22;;
79454;SDS011;68900;52.134;5.420;2023-09-12T14:47:46;13.88;;;6.85;;
79454;SDS011;68900;52.134;5.420;2023-09-12T14:50:13;12.18;;;5.80;;
79454;SDS011;68900;52.134;5.420;2023-09-12T14:52:39;14.50;;;7.05;;
79454;SDS011;68900;52.134;5.420;2023-09-12T14:55:06;13.63;;;6.57;;
79454;SDS011;68900;52.134;5.420;2023-09-12T14:57:35;12.50;;;6.20;;
79454;SDS011;68900;52.134;5.420;2023-09-12T15:00:02;14.60;;;6.40;;